Time;durP1;ratioP1;P1;durP2;ratioP2;P2;SDS_P1;SDS_P2;PMS_P1;PMS_P2;Temp;Humidity;BMP_temperature;BMP_pressure;BME280_temperature;BME280_humidity;BME280_pressure;Samples;Min_cycle;Max_cycle;Signal;HPM_P1;HPM_P2
2021/07/28 00:00:48;;;;;;;;;;;;;;;;;;1471113;40;20434;-38
2021/07/28 00:01:49;;;;;;;;;;;;;;;;;;1475932;40;20124;-35
2021/07/28 00:02:49;;;;;;;;;;;;;;;;;;1475730;40;20064;-39
2021/07/28 00:03:50;;;;;;;;;;;;;;;;;;1466493;40;19973;-40
2021/07/28 00:04:50;;;;;;;;;;;;;;;;;;1467923;40;19941;-39
2021/07/28 00:05:51;;;;;;;;;;;;;;;;;;1472864;40;19990;-38
2021/07/28 00:06:52;;;;;;;;;;;;;;;;;;1472545;40;19945;-36
2021/07/28 00:07:53;;;;;;;;;;;;;;;;;;1472401;40;19996;-37
2021/07/28 00:08:53;;;;;;;;;;;;;;;;;;1471999;40;19941;-37
2021/07/28 00:09:53;;;;;;;;;;;;;;;;;;1467844;40;20276;-42
2021/07/28 00:10:54;;;;;;;;;;;;;;;;;;1472921;40;19933;-40
2021/07/28 00:11:54;;;;;;;;;;;;;;;;;;1472716;40;20375;-36
2021/07/28 00:12:55;;;;;;;;;;;;;;;;;;1471918;40;19952;-37
2021/07/28 00:13:55;;;;;;;;;;;;;;;;;;1472983;40;19957;-39
2021/07/28 00:14:55;;;;;;;;;;;;;;;;;;1467643;40;19941;-38
2021/07/28 00:15:56;;;;;;;;;;;;;;;;;;1467438;40;20641;-40
2021/07/28 00:16:59;;;;;;;;;;;;;;;;;;1466530;40;19944;-39
2021/07/28 00:18:04;;;;;;;;;;;;;;;;;;1467068;40;20445;-36
2021/07/28 00:20:14;;;;;;;;;;;;;;;;;;1472761;40;19953;-45
2021/07/28 00:24:01;;;;;;;;;;;;;;;;;;1472849;40;19933;-41
2021/07/28 00:25:01;;;;;;;;;;;;;;;;;;1471268;40;19941;-39
2021/07/28 00:26:02;;;;;;;;;;;;;;;;;;1468444;40;19944;-41
2021/07/28 00:27:04;;;;;;;;;;;;;;;;;;1469457;40;20561;-39
2021/07/28 00:28:04;;;;;;;;;;;;;;;;;;1468217;40;19943;-40
2021/07/28 00:29:04;;;;;;;;;;;;;;;;;;1468659;40;19944;-41
2021/07/28 00:30:08;;;;;;;;;;;;;;;;;;1468891;40;19940;-36
2021/07/28 00:31:09;;;;;;;;;;;;;;;;;;1468968;40;19937;-39
2021/07/28 00:32:09;;;;;;;;;;;;;;;;;;1467834;40;19998;-40
2021/07/28 00:33:10;;;;;;;;;;;;;;;;;;1468160;40;19937;-40
2021/07/28 00:34:10;;;;;;;;;;;;;;;;;;1466030;40;19981;-39
2021/07/28 00:35:10;;;;;;;;;;;;;;;;;;1470226;40;20006;-37
2021/07/28 00:36:11;;;;;;;;;;;;;;;;;;1471075;40;20030;-36
2021/07/28 00:37:11;;;;;;;;;;;;;;;;;;1472224;40;20399;-35
2021/07/28 00:38:13;;;;;;;;;;;;;;;;;;1475512;40;19936;-35
2021/07/28 00:39:13;;;;;;;;;;;;;;;;;;1475820;40;20394;-36
2021/07/28 00:40:14;;;;;;;;;;;;;;;;;;1471493;40;19937;-42
2021/07/28 00:41:15;;;;;;;;;;;;;;;;;;1466697;40;19949;-39
2021/07/28 00:42:15;;;;;;;;;;;;;;;;;;1467872;40;19948;-45
2021/07/28 00:43:16;;;;;;;;;;;;;;;;;;1467475;40;20027;-45
2021/07/28 00:44:16;;;;;;;;;;;;;;;;;;1471154;40;20121;-38
2021/07/28 00:45:16;;;;;;;;;;;;;;;;;;1471759;40;20688;-37
2021/07/28 00:46:17;;;;;;;;;;;;;;;;;;1471409;40;20270;-38
2021/07/28 00:47:18;;;;;;;;;;;;;;;;;;1467339;40;20056;-40
2021/07/28 00:48:18;;;;;;;;;;;;;;;;;;1467249;40;19948;-38
2021/07/28 00:49:18;;;;;;;;;;;;;;;;;;1463208;40;20189;-39
2021/07/28 00:50:19;;;;;;;;;;;;;;;;;;1467367;40;20140;-36
2021/07/28 00:51:19;;;;;;;;;;;;;;;;;;1467639;40;20250;-39
2021/07/28 00:52:20;;;;;;;;;;;;;;;;;;1462427;40;20056;-41
2021/07/28 00:53:20;;;;;;;;;;;;;;;;;;1463589;40;19989;-39
2021/07/28 00:54:23;;;;;;;;;;;;;;;;;;1459255;40;19948;-36
2021/07/28 00:55:23;;;;;;;;;;;;;;;;;;1459461;40;19954;-38
2021/07/28 00:56:25;;;;;;;;;;;;;;;;;;1463408;40;20082;-36
2021/07/28 00:57:25;;;;;;;;;;;;;;;;;;1463006;40;19991;-40
2021/07/28 00:58:25;;;;;;;;;;;;;;;;;;1459880;40;19952;-37
2021/07/28 00:59:26;;;;;;;;;;;;;;;;;;1459088;40;20469;-36
2021/07/28 01:00:29;;;;;;;;;;;;;;;;;;1459531;40;19948;-36
2021/07/28 01:01:29;;;;;;;;;;;;;;;;;;1459851;40;19938;-37
2021/07/28 01:02:29;;;;;;;;;;;;;;;;;;1459359;40;20094;-36
2021/07/28 01:03:30;;;;;;;;;;;;;;;;;;1457111;40;19964;-39
2021/07/28 01:04:30;;;;;;;;;;;;;;;;;;1458335;40;20108;-39
2021/07/28 01:05:31;;;;;;;;;;;;;;;;;;1463521;40;19942;-38
2021/07/28 01:06:31;;;;;;;;;;;;;;;;;;1463626;40;20050;-36
2021/07/28 01:07:32;;;;;;;;;;;;;;;;;;1459193;40;20275;-38
2021/07/28 01:08:32;;;;;;;;;;;;;;;;;;1459955;40;20354;-40
2021/07/28 01:09:33;;;;;;;;;;;;;;;;;;1458935;40;20124;-39
2021/07/28 01:10:34;;;;;;;;;;;;;;;;;;1459367;40;19958;-37
2021/07/28 01:11:35;;;;;;;;;;;;;;;;;;1459126;40;19946;-36
2021/07/28 01:12:42;;;;;;;;;;;;;;;;;;1459138;40;20133;-37
2021/07/28 01:13:42;;;;;;;;;;;;;;;;;;1455753;40;19927;-36
2021/07/28 01:14:44;;;;;;;;;;;;;;;;;;1459278;40;20330;-39
2021/07/28 01:15:44;;;;;;;;;;;;;;;;;;1454671;40;20036;-40
2021/07/28 01:16:46;;;;;;;;;;;;;;;;;;1455340;40;19982;-37
2021/07/28 01:17:46;;;;;;;;;;;;;;;;;;1458739;40;20005;-38
2021/07/28 01:18:48;;;;;;;;;;;;;;;;;;1461147;40;19945;-45
2021/07/28 01:19:52;;;;;;;;;;;;;;;;;;1468301;40;19937;-39
2021/07/28 01:20:53;;;;;;;;;;;;;;;;;;1458697;40;19965;-36
2021/07/28 01:21:53;;;;;;;;;;;;;;;;;;1463300;40;19937;-37
2021/07/28 01:22:55;;;;;;;;;;;;;;;;;;1467111;40;20179;-37
2021/07/28 01:23:56;;;;;;;;;;;;;;;;;;1465920;40;19934;-40
2021/07/28 01:24:57;;;;;;;;;;;;;;;;;;1464149;40;19934;-38
2021/07/28 01:26:01;;;;;;;;;;;;;;;;;;1464696;40;19937;-36
2021/07/28 01:27:01;;;;;;;;;;;;;;;;;;1468099;40;19937;-38
2021/07/28 01:28:02;;;;;;;;;;;;;;;;;;1463619;40;20334;-38
2021/07/28 01:29:03;;;;;;;;;;;;;;;;;;1462652;40;19946;-40
2021/07/28 01:30:03;;;;;;;;;;;;;;;;;;1463872;40;19937;-36
2021/07/28 01:31:05;;;;;;;;;;;;;;;;;;1463528;40;19944;-36
2021/07/28 01:32:06;;;;;;;;;;;;;;;;;;1463181;40;19937;-37
2021/07/28 01:33:06;;;;;;;;;;;;;;;;;;1463929;40;20014;-37
2021/07/28 01:34:08;;;;;;;;;;;;;;;;;;1463613;40;20429;-38
2021/07/28 01:35:09;;;;;;;;;;;;;;;;;;1460576;40;20327;-39
2021/07/28 01:36:20;;;;;;;;;;;;;;;;;;1458482;40;20347;-40
2021/07/28 01:37:21;;;;;;;;;;;;;;;;;;1467689;40;20102;-38
2021/07/28 01:38:25;;;;;;;;;;;;;;;;;;1467392;40;20653;-36
2021/07/28 01:39:26;;;;;;;;;;;;;;;;;;1463034;40;20288;-36
2021/07/28 01:40:26;;;;;;;;;;;;;;;;;;1459055;40;20229;-39
2021/07/28 01:41:27;;;;;;;;;;;;;;;;;;1463034;40;20163;-39
2021/07/28 01:42:28;;;;;;;;;;;;;;;;;;1467188;40;19981;-38
2021/07/28 01:43:29;;;;;;;;;;;;;;;;;;1464380;40;19960;-39
2021/07/28 01:44:31;;;;;;;;;;;;;;;;;;1464417;40;20005;-36
2021/07/28 01:45:31;;;;;;;;;;;;;;;;;;1464438;40;20004;-40
2021/07/28 01:46:32;;;;;;;;;;;;;;;;;;1469045;40;20228;-39
2021/07/28 01:47:32;;;;;;;;;;;;;;;;;;1464346;40;19969;-39
2021/07/28 01:48:33;;;;;;;;;;;;;;;;;;1464374;40;20067;-37
2021/07/28 01:49:33;;;;;;;;;;;;;;;;;;1464324;40;20273;-37
2021/07/28 01:50:33;;;;;;;;;;;;;;;;;;1464825;40;20021;-39
2021/07/28 01:51:34;;;;;;;;;;;;;;;;;;1465115;40;20448;-39
2021/07/28 01:52:35;;;;;;;;;;;;;;;;;;1472411;40;19956;-41
2021/07/28 01:53:35;;;;;;;;;;;;;;;;;;1471974;40;19948;-37
2021/07/28 01:54:36;;;;;;;;;;;;;;;;;;1472886;40;20071;-38
2021/07/28 01:55:36;;;;;;;;;;;;;;;;;;1472053;40;20314;-35
2021/07/28 01:56:42;;;;;;;;;;;;;;;;;;1464193;40;19941;-39
2021/07/28 01:57:42;;;;;;;;;;;;;;;;;;1464537;40;20364;-36
2021/07/28 01:58:52;;;;;;;;;;;;;;;;;;1464638;40;19953;-37
2021/07/28 01:59:53;;;;;;;;;;;;;;;;;;1464145;40;19941;-37
2021/07/28 02:00:53;;;;;;;;;;;;;;;;;;1464501;40;19937;-35
2021/07/28 02:01:53;;;;;;;;;;;;;;;;;;1464062;40;20295;-39
2021/07/28 02:02:55;;;;;;;;;;;;;;;;;;1461336;40;19957;-35
2021/07/28 02:03:56;;;;;;;;;;;;;;;;;;1464749;40;19938;-37
2021/07/28 02:04:58;;;;;;;;;;;;;;;;;;1471599;40;19937;-38
2021/07/28 02:05:58;;;;;;;;;;;;;;;;;;1471281;40;19947;-36
2021/07/28 02:06:59;;;;;;;;;;;;;;;;;;1463389;40;20013;-38
2021/07/28 02:08:04;;;;;;;;;;;;;;;;;;1475706;40;19936;-36
2021/07/28 02:09:06;;;;;;;;;;;;;;;;;;1479341;40;19936;-37
2021/07/28 02:12:11;;;;;;;;;;;;;;;;;;1444738;23;19949;-40
2021/07/28 02:13:12;;;;;;;;;;;;;;;;;;1473637;40;19985;-38
2021/07/28 02:14:12;;;;;;;;;;;;;;;;;;1474095;40;20587;-36
2021/07/28 02:15:13;;;;;;;;;;;;;;;;;;1474628;40;20487;-40
2021/07/28 02:16:13;;;;;;;;;;;;;;;;;;1473361;40;20037;-50
2021/07/28 02:17:14;;;;;;;;;;;;;;;;;;1472058;40;19988;-39
2021/07/28 02:18:14;;;;;;;;;;;;;;;;;;1471663;40;19956;-35
2021/07/28 02:19:14;;;;;;;;;;;;;;;;;;1467550;40;20454;-35
2021/07/28 02:20:15;;;;;;;;;;;;;;;;;;1472458;40;19953;-37
2021/07/28 02:21:15;;;;;;;;;;;;;;;;;;1476313;40;20050;-37
2021/07/28 02:22:16;;;;;;;;;;;;;;;;;;1475920;40;19940;-41
2021/07/28 02:23:16;;;;;;;;;;;;;;;;;;1469313;40;20026;-36
2021/07/28 02:24:17;;;;;;;;;;;;;;;;;;1471715;40;20453;-37
2021/07/28 02:25:17;;;;;;;;;;;;;;;;;;1471586;40;19941;-38
2021/07/28 02:26:18;;;;;;;;;;;;;;;;;;1467847;40;22009;-40
2021/07/28 02:27:18;;;;;;;;;;;;;;;;;;1471838;40;19948;-39
2021/07/28 02:28:18;;;;;;;;;;;;;;;;;;1471548;40;20208;-39
2021/07/28 02:29:19;;;;;;;;;;;;;;;;;;1474416;40;20033;-39
2021/07/28 02:30:19;;;;;;;;;;;;;;;;;;1470912;40;19952;-40
2021/07/28 02:31:19;;;;;;;;;;;;;;;;;;1474376;40;20416;-39
2021/07/28 02:32:20;;;;;;;;;;;;;;;;;;1475974;40;19940;-39
2021/07/28 02:33:20;;;;;;;;;;;;;;;;;;1476001;40;20270;-36
2021/07/28 02:34:20;;;;;;;;;;;;;;;;;;1475849;40;20010;-37
2021/07/28 02:35:21;;;;;;;;;;;;;;;;;;1475712;40;19955;-36
2021/07/28 02:36:21;;;;;;;;;;;;;;;;;;1475914;40;19968;-40
2021/07/28 02:37:21;;;;;;;;;;;;;;;;;;1466937;40;20214;-39
2021/07/28 02:38:22;;;;;;;;;;;;;;;;;;1468848;40;19936;-45
2021/07/28 02:39:22;;;;;;;;;;;;;;;;;;1476076;40;19933;-40
2021/07/28 02:40:22;;;;;;;;;;;;;;;;;;1474853;40;19936;-37
2021/07/28 02:41:22;;;;;;;;;;;;;;;;;;1474685;40;19963;-39
2021/07/28 02:42:23;;;;;;;;;;;;;;;;;;1474747;40;19943;-38
2021/07/28 02:43:23;;;;;;;;;;;;;;;;;;1475853;40;20318;-35
2021/07/28 02:44:23;;;;;;;;;;;;;;;;;;1470339;40;19944;-38
2021/07/28 02:45:24;;;;;;;;;;;;;;;;;;1471541;40;19937;-36
2021/07/28 02:46:24;;;;;;;;;;;;;;;;;;1474724;40;19937;-38
2021/07/28 02:47:24;;;;;;;;;;;;;;;;;;1475548;40;20167;-36
2021/07/28 02:48:25;;;;;;;;;;;;;;;;;;1475808;40;19980;-40
2021/07/28 02:49:25;;;;;;;;;;;;;;;;;;1475094;40;19941;-36
2021/07/28 02:50:25;;;;;;;;;;;;;;;;;;1475079;40;20254;-36
2021/07/28 02:51:26;;;;;;;;;;;;;;;;;;1467000;40;19936;-39
2021/07/28 02:52:26;;;;;;;;;;;;;;;;;;1472225;40;19937;-36
2021/07/28 02:53:26;;;;;;;;;;;;;;;;;;1472473;40;19969;-38
2021/07/28 02:54:27;;;;;;;;;;;;;;;;;;1470451;40;19943;-37
2021/07/28 02:55:27;;;;;;;;;;;;;;;;;;1471341;40;19981;-38
2021/07/28 02:56:29;;;;;;;;;;;;;;;;;;1471588;40;19937;-37
2021/07/28 02:57:30;;;;;;;;;;;;;;;;;;1476819;40;20341;-40
2021/07/28 02:58:30;;;;;;;;;;;;;;;;;;1466364;40;19988;-44
2021/07/28 02:59:31;;;;;;;;;;;;;;;;;;1468209;40;19937;-37
2021/07/28 03:00:31;;;;;;;;;;;;;;;;;;1468561;40;20035;-37
2021/07/28 03:01:31;;;;;;;;;;;;;;;;;;1467866;40;19937;-38
2021/07/28 03:02:32;;;;;;;;;;;;;;;;;;1463422;40;19938;-38
2021/07/28 03:03:32;;;;;;;;;;;;;;;;;;1455465;40;20412;-37
2021/07/28 03:04:32;;;;;;;;;;;;;;;;;;1458707;40;19970;-35
2021/07/28 03:05:33;;;;;;;;;;;;;;;;;;1468303;40;20257;-35
2021/07/28 03:06:33;;;;;;;;;;;;;;;;;;1467999;40;19956;-36
2021/07/28 03:07:33;;;;;;;;;;;;;;;;;;1468426;40;19945;-35
2021/07/28 03:08:34;;;;;;;;;;;;;;;;;;1468149;40;19941;-36
2021/07/28 03:09:34;;;;;;;;;;;;;;;;;;1463362;40;19938;-37
2021/07/28 03:10:34;;;;;;;;;;;;;;;;;;1467103;40;19945;-37
2021/07/28 03:11:35;;;;;;;;;;;;;;;;;;1471808;40;20059;-35
2021/07/28 03:12:35;;;;;;;;;;;;;;;;;;1466978;40;19941;-35
2021/07/28 03:13:35;;;;;;;;;;;;;;;;;;1468757;40;19974;-36
2021/07/28 03:14:36;;;;;;;;;;;;;;;;;;1474730;40;19940;-38
2021/07/28 03:15:36;;;;;;;;;;;;;;;;;;1474507;40;20286;-37
2021/07/28 03:16:38;;;;;;;;;;;;;;;;;;1475291;40;19966;-35
2021/07/28 03:17:39;;;;;;;;;;;;;;;;;;1470440;40;19952;-36
2021/07/28 03:18:39;;;;;;;;;;;;;;;;;;1472562;40;20157;-36
2021/07/28 03:19:39;;;;;;;;;;;;;;;;;;1472406;40;19979;-40
2021/07/28 03:20:40;;;;;;;;;;;;;;;;;;1471129;40;19951;-38
2021/07/28 03:21:40;;;;;;;;;;;;;;;;;;1476204;40;19940;-44
2021/07/28 03:22:40;;;;;;;;;;;;;;;;;;1476581;40;19937;-41
2021/07/28 03:23:41;;;;;;;;;;;;;;;;;;1473132;40;20365;-39
2021/07/28 03:24:41;;;;;;;;;;;;;;;;;;1467467;40;19964;-38
2021/07/28 03:25:41;;;;;;;;;;;;;;;;;;1470954;40;19940;-39
2021/07/28 03:26:42;;;;;;;;;;;;;;;;;;1467225;40;19937;-37
2021/07/28 03:27:42;;;;;;;;;;;;;;;;;;1466513;40;19949;-40
2021/07/28 03:28:43;;;;;;;;;;;;;;;;;;1475799;40;20169;-39
2021/07/28 03:29:43;;;;;;;;;;;;;;;;;;1475265;40;20236;-41
2021/07/28 03:30:43;;;;;;;;;;;;;;;;;;1471884;40;19981;-40
2021/07/28 03:31:44;;;;;;;;;;;;;;;;;;1471456;40;19940;-40
2021/07/28 03:32:44;;;;;;;;;;;;;;;;;;1465116;40;20442;-39
2021/07/28 03:33:45;;;;;;;;;;;;;;;;;;1466886;40;19949;-37
2021/07/28 03:34:45;;;;;;;;;;;;;;;;;;1474718;40;19948;-38
2021/07/28 03:35:46;;;;;;;;;;;;;;;;;;1459680;40;19937;-39
2021/07/28 03:36:46;;;;;;;;;;;;;;;;;;1463174;40;19937;-38
2021/07/28 03:37:46;;;;;;;;;;;;;;;;;;1472035;40;19957;-38
2021/07/28 03:38:47;;;;;;;;;;;;;;;;;;1472682;40;19941;-37
2021/07/28 03:39:47;;;;;;;;;;;;;;;;;;1468258;40;19941;-36
2021/07/28 03:40:51;;;;;;;;;;;;;;;;;;1469295;40;20352;-38
2021/07/28 03:41:51;;;;;;;;;;;;;;;;;;1471411;40;19949;-43
2021/07/28 03:42:51;;;;;;;;;;;;;;;;;;1467835;40;20261;-43
2021/07/28 03:43:52;;;;;;;;;;;;;;;;;;1462724;40;19938;-38
2021/07/28 03:44:52;;;;;;;;;;;;;;;;;;1470857;40;19937;-41
2021/07/28 03:45:55;;;;;;;;;;;;;;;;;;1471224;40;19937;-40
2021/07/28 03:46:57;;;;;;;;;;;;;;;;;;1467218;40;20138;-35
2021/07/28 03:47:57;;;;;;;;;;;;;;;;;;1466594;40;19965;-50
2021/07/28 03:48:57;;;;;;;;;;;;;;;;;;1472755;40;20411;-39
2021/07/28 03:49:58;;;;;;;;;;;;;;;;;;1475406;40;20387;-36
2021/07/28 03:50:58;;;;;;;;;;;;;;;;;;1474885;40;19945;-37
2021/07/28 03:51:58;;;;;;;;;;;;;;;;;;1475477;40;20030;-37
2021/07/28 03:53:03;;;;;;;;;;;;;;;;;;1474918;40;20393;-39
2021/07/28 03:54:04;;;;;;;;;;;;;;;;;;1475638;40;20414;-36
2021/07/28 03:55:05;;;;;;;;;;;;;;;;;;1469768;40;19941;-35
2021/07/28 03:56:06;;;;;;;;;;;;;;;;;;1468417;40;19949;-39
2021/07/28 03:57:06;;;;;;;;;;;;;;;;;;1463034;40;20019;-40
2021/07/28 03:58:06;;;;;;;;;;;;;;;;;;1463133;40;20194;-41
2021/07/28 03:59:07;;;;;;;;;;;;;;;;;;1466866;40;19937;-40
2021/07/28 04:00:08;;;;;;;;;;;;;;;;;;1467074;40;20324;-41
2021/07/28 04:01:08;;;;;;;;;;;;;;;;;;1470709;40;20194;-40
2021/07/28 04:02:12;;;;;;;;;;;;;;;;;;1470808;40;20091;-38
2021/07/28 04:03:12;;;;;;;;;;;;;;;;;;1465323;40;19956;-49
2021/07/28 04:04:13;;;;;;;;;;;;;;;;;;1464822;40;20178;-38
2021/07/28 04:05:14;;;;;;;;;;;;;;;;;;1467172;40;19982;-38
2021/07/28 04:06:14;;;;;;;;;;;;;;;;;;1469495;40;19955;-35
2021/07/28 04:07:15;;;;;;;;;;;;;;;;;;1470342;40;19937;-36
2021/07/28 04:08:15;;;;;;;;;;;;;;;;;;1461132;40;20004;-40
2021/07/28 04:09:15;;;;;;;;;;;;;;;;;;1458665;40;20328;-38
2021/07/28 04:10:16;;;;;;;;;;;;;;;;;;1463520;40;20239;-40
2021/07/28 04:11:16;;;;;;;;;;;;;;;;;;1463815;40;19941;-40
2021/07/28 04:12:21;;;;;;;;;;;;;;;;;;1461883;40;21364;-37
2021/07/28 04:13:24;;;;;;;;;;;;;;;;;;1462942;40;19934;-37
2021/07/28 04:14:24;;;;;;;;;;;;;;;;;;1462910;40;19941;-40
2021/07/28 04:15:24;;;;;;;;;;;;;;;;;;1462942;40;19946;-37
2021/07/28 04:16:24;;;;;;;;;;;;;;;;;;1462897;40;19938;-34
2021/07/28 04:17:25;;;;;;;;;;;;;;;;;;1462730;40;19977;-38
2021/07/28 04:18:25;;;;;;;;;;;;;;;;;;1463026;40;20080;-36
2021/07/28 04:19:25;;;;;;;;;;;;;;;;;;1462929;40;20081;-39
2021/07/28 04:20:26;;;;;;;;;;;;;;;;;;1465379;40;19980;-40
2021/07/28 04:21:26;;;;;;;;;;;;;;;;;;1467000;40;20215;-42
2021/07/28 04:22:27;;;;;;;;;;;;;;;;;;1459065;40;20106;-46
2021/07/28 04:23:27;;;;;;;;;;;;;;;;;;1458403;40;19990;-36
2021/07/28 04:24:27;;;;;;;;;;;;;;;;;;1465932;40;20024;-38
2021/07/28 04:25:28;;;;;;;;;;;;;;;;;;1460777;40;19942;-37
2021/07/28 04:26:28;;;;;;;;;;;;;;;;;;1461117;40;20105;-40
2021/07/28 04:27:29;;;;;;;;;;;;;;;;;;1457827;40;20329;-39
2021/07/28 04:28:30;;;;;;;;;;;;;;;;;;1462770;40;20293;-39
2021/07/28 04:29:30;;;;;;;;;;;;;;;;;;1466974;40;19969;-35
2021/07/28 04:30:30;;;;;;;;;;;;;;;;;;1467183;40;19970;-38
2021/07/28 04:31:31;;;;;;;;;;;;;;;;;;1458242;40;20028;-36
2021/07/28 04:32:31;;;;;;;;;;;;;;;;;;1458546;40;20343;-43
2021/07/28 04:33:31;;;;;;;;;;;;;;;;;;1462658;40;20000;-35
2021/07/28 04:34:34;;;;;;;;;;;;;;;;;;1460715;40;20527;-36
2021/07/28 04:35:34;;;;;;;;;;;;;;;;;;1466954;40;19953;-36
2021/07/28 04:36:35;;;;;;;;;;;;;;;;;;1465666;40;19981;-37
2021/07/28 04:37:35;;;;;;;;;;;;;;;;;;1466932;40;20345;-38
2021/07/28 04:38:35;;;;;;;;;;;;;;;;;;1462432;40;20212;-39
2021/07/28 04:39:35;;;;;;;;;;;;;;;;;;1458839;40;19948;-38
2021/07/28 04:40:36;;;;;;;;;;;;;;;;;;1458625;40;20156;-36
2021/07/28 04:41:36;;;;;;;;;;;;;;;;;;1465671;40;20044;-36
2021/07/28 04:42:37;;;;;;;;;;;;;;;;;;1464387;40;20175;-40
2021/07/28 04:43:37;;;;;;;;;;;;;;;;;;1476112;40;19964;-39
2021/07/28 04:44:37;;;;;;;;;;;;;;;;;;1476114;40;20012;-39
2021/07/28 04:45:39;;;;;;;;;;;;;;;;;;1470529;40;19984;-41
2021/07/28 04:46:39;;;;;;;;;;;;;;;;;;1471713;40;20477;-37
2021/07/28 04:47:39;;;;;;;;;;;;;;;;;;1472110;40;20017;-36
2021/07/28 04:48:40;;;;;;;;;;;;;;;;;;1472077;40;20229;-38
2021/07/28 04:49:40;;;;;;;;;;;;;;;;;;1471892;40;19955;-38
2021/07/28 04:50:40;;;;;;;;;;;;;;;;;;1471800;40;19941;-39
2021/07/28 04:51:41;;;;;;;;;;;;;;;;;;1472168;40;20285;-37
2021/07/28 04:52:41;;;;;;;;;;;;;;;;;;1471911;40;19941;-35
2021/07/28 04:53:41;;;;;;;;;;;;;;;;;;1472074;40;19937;-37
2021/07/28 04:54:41;;;;;;;;;;;;;;;;;;1471995;40;20034;-39
2021/07/28 04:55:42;;;;;;;;;;;;;;;;;;1468707;40;19932;-39
2021/07/28 04:56:42;;;;;;;;;;;;;;;;;;1471577;40;20185;-38
2021/07/28 04:57:42;;;;;;;;;;;;;;;;;;1471188;40;19944;-41
2021/07/28 04:58:42;;;;;;;;;;;;;;;;;;1468654;40;20285;-38
2021/07/28 04:59:43;;;;;;;;;;;;;;;;;;1471642;40;20080;-37
2021/07/28 05:00:43;;;;;;;;;;;;;;;;;;1471196;40;20207;-36
2021/07/28 05:01:43;;;;;;;;;;;;;;;;;;1465367;40;19957;-40
2021/07/28 05:02:44;;;;;;;;;;;;;;;;;;1467696;40;19959;-37
2021/07/28 05:03:44;;;;;;;;;;;;;;;;;;1467701;40;19937;-36
2021/07/28 05:04:44;;;;;;;;;;;;;;;;;;1467714;40;19949;-39
2021/07/28 05:05:45;;;;;;;;;;;;;;;;;;1467318;40;19945;-35
2021/07/28 05:06:45;;;;;;;;;;;;;;;;;;1467200;40;19940;-37
2021/07/28 05:07:45;;;;;;;;;;;;;;;;;;1469185;40;20189;-35
2021/07/28 05:08:45;;;;;;;;;;;;;;;;;;1471577;40;19937;-36
2021/07/28 05:09:46;;;;;;;;;;;;;;;;;;1471576;40;20025;-36
2021/07/28 05:10:47;;;;;;;;;;;;;;;;;;1471815;40;20190;-39
2021/07/28 05:11:48;;;;;;;;;;;;;;;;;;1471249;40;20262;-36
2021/07/28 05:12:48;;;;;;;;;;;;;;;;;;1471206;40;20297;-37
2021/07/28 05:13:48;;;;;;;;;;;;;;;;;;1471236;40;19936;-39
2021/07/28 05:14:49;;;;;;;;;;;;;;;;;;1468222;40;19941;-36
2021/07/28 05:15:50;;;;;;;;;;;;;;;;;;1470717;40;19980;-36
2021/07/28 05:16:50;;;;;;;;;;;;;;;;;;1467476;40;20266;-39
2021/07/28 05:17:50;;;;;;;;;;;;;;;;;;1462868;40;19941;-38
2021/07/28 05:18:51;;;;;;;;;;;;;;;;;;1467453;40;19999;-39
2021/07/28 05:19:51;;;;;;;;;;;;;;;;;;1467737;40;20279;-39
2021/07/28 05:20:51;;;;;;;;;;;;;;;;;;1471614;40;19944;-40
2021/07/28 05:21:52;;;;;;;;;;;;;;;;;;1471491;40;19973;-37
2021/07/28 05:22:52;;;;;;;;;;;;;;;;;;1471338;40;20362;-39
2021/07/28 05:23:53;;;;;;;;;;;;;;;;;;1466326;40;19945;-37
2021/07/28 05:24:54;;;;;;;;;;;;;;;;;;1462270;40;19946;-38
2021/07/28 05:25:55;;;;;;;;;;;;;;;;;;1466956;40;19941;-36
2021/07/28 05:26:55;;;;;;;;;;;;;;;;;;1468502;40;19937;-37
2021/07/28 05:27:56;;;;;;;;;;;;;;;;;;1471473;40;19980;-35
2021/07/28 05:28:56;;;;;;;;;;;;;;;;;;1469700;40;20345;-37
2021/07/28 05:29:57;;;;;;;;;;;;;;;;;;1465136;40;20165;-39
2021/07/28 05:30:57;;;;;;;;;;;;;;;;;;1465772;40;20334;-39
2021/07/28 05:31:57;;;;;;;;;;;;;;;;;;1464504;40;19945;-38
2021/07/28 05:32:58;;;;;;;;;;;;;;;;;;1464349;40;19941;-40
2021/07/28 05:33:58;;;;;;;;;;;;;;;;;;1467594;40;19949;-38
2021/07/28 05:34:59;;;;;;;;;;;;;;;;;;1467292;40;19949;-37
2021/07/28 05:35:59;;;;;;;;;;;;;;;;;;1467700;40;19964;-39
2021/07/28 05:36:59;;;;;;;;;;;;;;;;;;1462283;40;19957;-41
2021/07/28 05:38:01;;;;;;;;;;;;;;;;;;1462548;40;20103;-39
2021/07/28 05:39:01;;;;;;;;;;;;;;;;;;1466316;40;20238;-38
2021/07/28 05:40:02;;;;;;;;;;;;;;;;;;1453983;40;19946;-38
2021/07/28 05:41:03;;;;;;;;;;;;;;;;;;1457620;40;20254;-39
2021/07/28 05:42:03;;;;;;;;;;;;;;;;;;1464802;40;20024;-37
2021/07/28 05:43:04;;;;;;;;;;;;;;;;;;1466640;40;19945;-37
2021/07/28 05:44:07;;;;;;;;;;;;;;;;;;1466764;40;19933;-40
2021/07/28 05:45:08;;;;;;;;;;;;;;;;;;1461968;40;20095;-39
2021/07/28 05:46:08;;;;;;;;;;;;;;;;;;1465061;40;19963;-45
2021/07/28 05:47:09;;;;;;;;;;;;;;;;;;1461838;40;19937;-38
2021/07/28 05:48:09;;;;;;;;;;;;;;;;;;1461488;40;20043;-38
2021/07/28 05:49:10;;;;;;;;;;;;;;;;;;1466927;40;20270;-40
2021/07/28 05:50:11;;;;;;;;;;;;;;;;;;1467373;40;20388;-35
2021/07/28 05:51:11;;;;;;;;;;;;;;;;;;1466968;40;19941;-36
2021/07/28 05:52:11;;;;;;;;;;;;;;;;;;1466955;40;19937;-39
2021/07/28 05:53:11;;;;;;;;;;;;;;;;;;1467855;40;19944;-35
2021/07/28 05:54:12;;;;;;;;;;;;;;;;;;1466758;40;20608;-37
2021/07/28 05:55:12;;;;;;;;;;;;;;;;;;1467043;40;20112;-37
2021/07/28 05:56:13;;;;;;;;;;;;;;;;;;1466861;40;20706;-37
2021/07/28 05:57:13;;;;;;;;;;;;;;;;;;1467262;40;19953;-39
2021/07/28 05:58:14;;;;;;;;;;;;;;;;;;1466328;40;20091;-37
2021/07/28 05:59:14;;;;;;;;;;;;;;;;;;1466960;40;19941;-38
2021/07/28 06:00:15;;;;;;;;;;;;;;;;;;1463770;40;19968;-38
2021/07/28 06:01:15;;;;;;;;;;;;;;;;;;1467340;40;20090;-38
2021/07/28 06:02:15;;;;;;;;;;;;;;;;;;1466792;40;19956;-39
2021/07/28 06:03:16;;;;;;;;;;;;;;;;;;1467342;40;20016;-40
2021/07/28 06:04:16;;;;;;;;;;;;;;;;;;1463275;40;19967;-40
2021/07/28 06:05:17;;;;;;;;;;;;;;;;;;1458901;40;20133;-38
2021/07/28 06:06:17;;;;;;;;;;;;;;;;;;1458528;40;20338;-36
2021/07/28 06:07:17;;;;;;;;;;;;;;;;;;1461842;40;20594;-40
2021/07/28 06:08:18;;;;;;;;;;;;;;;;;;1461507;40;19933;-36
2021/07/28 06:09:18;;;;;;;;;;;;;;;;;;1463188;40;19960;-37
2021/07/28 06:10:18;;;;;;;;;;;;;;;;;;1463385;40;20062;-37
2021/07/28 06:11:19;;;;;;;;;;;;;;;;;;1463467;40;20449;-35
2021/07/28 06:12:19;;;;;;;;;;;;;;;;;;1462907;40;20076;-38
2021/07/28 06:13:19;;;;;;;;;;;;;;;;;;1463396;40;19937;-36
2021/07/28 06:14:20;;;;;;;;;;;;;;;;;;1462527;40;20046;-36
2021/07/28 06:15:20;;;;;;;;;;;;;;;;;;1463101;40;20051;-36
2021/07/28 06:16:20;;;;;;;;;;;;;;;;;;1463225;40;20690;-37
2021/07/28 06:17:21;;;;;;;;;;;;;;;;;;1471532;40;20309;-39
2021/07/28 06:18:21;;;;;;;;;;;;;;;;;;1471233;40;19960;-37
2021/07/28 06:19:21;;;;;;;;;;;;;;;;;;1465003;40;20178;-40
2021/07/28 06:20:21;;;;;;;;;;;;;;;;;;1469333;40;20329;-40
2021/07/28 06:21:22;;;;;;;;;;;;;;;;;;1471596;40;19968;-36
2021/07/28 06:22:22;;;;;;;;;;;;;;;;;;1471474;40;20352;-41
2021/07/28 06:23:22;;;;;;;;;;;;;;;;;;1471626;40;20266;-36
2021/07/28 06:24:22;;;;;;;;;;;;;;;;;;1471190;40;19949;-39
2021/07/28 06:25:23;;;;;;;;;;;;;;;;;;1471176;40;20179;-43
2021/07/28 06:26:23;;;;;;;;;;;;;;;;;;1471478;40;20291;-40
2021/07/28 06:27:23;;;;;;;;;;;;;;;;;;1472059;40;20034;-38
2021/07/28 06:28:26;;;;;;;;;;;;;;;;;;1472275;40;20059;-37
2021/07/28 06:29:26;;;;;;;;;;;;;;;;;;1471848;40;19944;-38
2021/07/28 06:30:26;;;;;;;;;;;;;;;;;;1472083;40;20056;-39
2021/07/28 06:31:26;;;;;;;;;;;;;;;;;;1472123;40;20129;-43
2021/07/28 06:32:27;;;;;;;;;;;;;;;;;;1466415;40;20444;-38
2021/07/28 06:33:27;;;;;;;;;;;;;;;;;;1467777;40;19937;-41
2021/07/28 06:34:27;;;;;;;;;;;;;;;;;;1468167;40;20310;-37
2021/07/28 06:35:28;;;;;;;;;;;;;;;;;;1463592;40;20111;-36
2021/07/28 06:36:28;;;;;;;;;;;;;;;;;;1467990;40;19937;-39
2021/07/28 06:37:28;;;;;;;;;;;;;;;;;;1467781;40;19945;-36
2021/07/28 06:38:28;;;;;;;;;;;;;;;;;;1467621;40;20347;-38
2021/07/28 06:39:29;;;;;;;;;;;;;;;;;;1467866;40;19997;-40
2021/07/28 06:40:29;;;;;;;;;;;;;;;;;;1467915;40;20079;-38
2021/07/28 06:41:29;;;;;;;;;;;;;;;;;;1467413;40;20178;-36
2021/07/28 06:42:30;;;;;;;;;;;;;;;;;;1467987;40;19953;-39
2021/07/28 06:43:30;;;;;;;;;;;;;;;;;;1467465;40;19941;-38
2021/07/28 06:44:30;;;;;;;;;;;;;;;;;;1468016;40;19977;-35
2021/07/28 06:45:31;;;;;;;;;;;;;;;;;;1467859;40;20120;-35
2021/07/28 06:46:31;;;;;;;;;;;;;;;;;;1467538;40;20060;-38
2021/07/28 06:47:33;;;;;;;;;;;;;;;;;;1465951;40;19944;-37
2021/07/28 06:48:33;;;;;;;;;;;;;;;;;;1471826;40;20181;-35
2021/07/28 06:49:33;;;;;;;;;;;;;;;;;;1472273;40;19933;-42
2021/07/28 06:50:34;;;;;;;;;;;;;;;;;;1463936;40;19980;-36
2021/07/28 06:51:34;;;;;;;;;;;;;;;;;;1467712;40;20288;-38
2021/07/28 06:52:35;;;;;;;;;;;;;;;;;;1467429;40;20031;-40
2021/07/28 06:53:35;;;;;;;;;;;;;;;;;;1467877;40;19933;-40
2021/07/28 06:54:35;;;;;;;;;;;;;;;;;;1467500;40;20187;-38
2021/07/28 06:55:36;;;;;;;;;;;;;;;;;;1468124;40;20034;-39
2021/07/28 06:56:37;;;;;;;;;;;;;;;;;;1467309;40;20392;-37
2021/07/28 06:57:37;;;;;;;;;;;;;;;;;;1467338;40;20324;-36
2021/07/28 06:58:37;;;;;;;;;;;;;;;;;;1467557;40;19940;-43
2021/07/28 06:59:38;;;;;;;;;;;;;;;;;;1467468;40;20155;-38
2021/07/28 07:00:38;;;;;;;;;;;;;;;;;;1467568;40;20230;-37